Time;durP1;ratioP1;P1;durP2;ratioP2;P2;SDS_P1;SDS_P2;PMS_P1;PMS_P2;Temp;Humidity;BMP_temperature;BMP_pressure;BME280_temperature;BME280_humidity;BME280_pressure;Samples;Min_cycle;Max_cycle;Signal;HPM_P1;HPM_P2
2023/06/18 00:08:47;;;;;;;9.23;7.30;;;18.70;59.50;;;;;;20903692;28;20272;-61
2023/06/18 00:18:49;;;;;;;12.37;8.53;;;18.50;59.90;;;;;;20917719;28;20232;-67
2023/06/18 00:28:51;;;;;;;9.27;7.73;;;18.50;60.50;;;;;;20916578;28;20382;-60
2023/06/18 00:38:54;;;;;;;10.43;8.37;;;18.40;60.80;;;;;;20915916;28;20213;-61
2023/06/18 00:48:57;;;;;;;7.93;6.90;;;18.20;61.00;;;;;;20915359;28;20262;-60
2023/06/18 00:58:59;;;;;;;9.73;7.30;;;18.00;61.60;;;;;;20913339;28;20357;-60
2023/06/18 01:09:01;;;;;;;10.60;7.20;;;17.80;62.20;;;;;;20971391;28;20267;-64
2023/06/18 01:19:05;;;;;;;14.70;7.20;;;17.70;62.90;;;;;;20996239;28;20306;-61
2023/06/18 01:29:10;;;;;;;11.43;9.53;;;17.50;63.60;;;;;;20994216;28;20235;-62
2023/06/18 01:39:38;;;;;;;9.63;8.47;;;17.50;64.10;;;;;;20912409;28;20199;-64
2023/06/18 01:49:44;;;;;;;9.60;8.13;;;17.30;64.70;;;;;;20911931;28;20329;-64
2023/06/18 01:59:46;;;;;;;11.43;7.83;;;17.30;65.50;;;;;;20912227;28;20205;-61
2023/06/18 02:09:48;;;;;;;8.90;7.40;;;17.20;65.80;;;;;;20976165;28;20756;-61
2023/06/18 02:19:50;;;;;;;12.23;9.77;;;17.10;66.20;;;;;;20990848;28;20258;-61
2023/06/18 02:29:52;;;;;;;12.57;8.00;;;17.10;66.80;;;;;;21002015;28;20337;-63
2023/06/18 02:39:54;;;;;;;9.53;7.03;;;16.90;67.50;;;;;;20925568;28;20569;-60
2023/06/18 02:49:56;;;;;;;9.57;7.60;;;16.90;67.90;;;;;;20924329;28;20273;-61
2023/06/18 02:59:58;;;;;;;9.83;7.30;;;16.60;69.50;;;;;;20922967;28;20292;-62
2023/06/18 03:09:59;;;;;;;12.67;8.60;;;16.40;70.60;;;;;;20876998;28;20326;-63
2023/06/18 03:20:01;;;;;;;9.03;7.63;;;16.40;70.50;;;;;;20839668;28;20240;-61
2023/06/18 03:30:06;;;;;;;10.17;7.90;;;16.30;71.00;;;;;;20847585;28;20228;-61
2023/06/18 03:40:10;;;;;;;9.07;7.77;;;16.20;71.60;;;;;;20920971;28;20220;-61
2023/06/18 03:50:14;;;;;;;13.33;7.77;;;16.10;72.30;;;;;;20919987;28;20273;-60
2023/06/18 04:00:16;;;;;;;11.77;7.80;;;16.20;72.90;;;;;;20919493;28;20590;-66
2023/06/18 04:10:18;;;;;;;10.47;7.07;;;16.10;73.30;;;;;;20905692;28;20247;-61
2023/06/18 04:20:20;;;;;;;11.77;7.80;;;16.20;73.50;;;;;;20849906;28;20244;-63
2023/06/18 04:30:22;;;;;;;10.77;7.03;;;16.40;73.70;;;;;;20846331;28;20261;-61
2023/06/18 04:40:25;;;;;;;9.23;8.00;;;16.50;73.80;;;;;;20914938;28;20211;-61
2023/06/18 04:50:26;;;;;;;9.10;7.90;;;16.50;73.80;;;;;;20915283;28;20247;-62
2023/06/18 05:00:28;;;;;;;11.23;7.60;;;16.70;74.40;;;;;;20914899;28;20255;-61
2023/06/18 05:10:33;;;;;;;14.23;7.90;;;16.80;74.60;;;;;;20984385;28;20294;-62
2023/06/18 05:20:35;;;;;;;9.97;7.43;;;17.00;74.60;;;;;;20995981;28;20266;-61
2023/06/18 05:30:37;;;;;;;9.43;8.10;;;17.40;74.40;;;;;;20982255;28;20205;-61
2023/06/18 05:40:38;;;;;;;12.00;7.90;;;17.70;72.90;;;;;;20912278;28;20269;-68
2023/06/18 05:50:41;;;;;;;11.33;7.73;;;17.90;73.00;;;;;;20919622;28;20301;-63
2023/06/18 06:00:43;;;;;;;13.27;10.93;;;18.20;71.50;;;;;;20928783;28;20206;-61
2023/06/18 06:10:45;;;;;;;10.67;7.90;;;18.40;70.60;;;;;;20999996;28;20211;-60
2023/06/18 06:20:46;;;;;;;8.60;7.70;;;18.70;69.70;;;;;;21009695;28;20342;-60
2023/06/18 06:30:48;;;;;;;11.87;8.03;;;19.00;68.50;;;;;;20993858;28;20557;-62
2023/06/18 06:40:50;;;;;;;9.17;7.70;;;19.40;67.50;;;;;;20925394;28;20218;-60
2023/06/18 06:50:53;;;;;;;9.30;8.10;;;19.70;66.50;;;;;;20924850;28;20222;-62
2023/06/18 07:00:55;;;;;;;8.20;7.40;;;20.10;65.60;;;;;;20923096;28;20645;-64
2023/06/18 07:10:56;;;;;;;9.30;7.97;;;20.40;64.90;;;;;;20997174;28;20203;-61
2023/06/18 07:20:58;;;;;;;11.07;8.77;;;20.60;64.00;;;;;;20994504;28;20299;-61
2023/06/18 07:31:00;;;;;;;9.67;7.80;;;20.90;63.20;;;;;;20890468;28;20581;-65
2023/06/18 07:41:02;;;;;;;11.27;7.83;;;21.30;62.50;;;;;;20920583;28;20239;-69
2023/06/18 07:51:04;;;;;;;11.07;7.97;;;21.70;61.60;;;;;;20912723;28;20239;-62
2023/06/18 08:01:06;;;;;;;15.00;7.70;;;22.00;60.50;;;;;;20851206;28;20327;-67
2023/06/18 08:11:08;;;;;;;7.93;7.10;;;22.40;59.00;;;;;;20986819;28;20202;-60
2023/06/18 08:21:11;;;;;;;8.23;7.30;;;22.60;57.60;;;;;;20999906;28;20540;-61
2023/06/18 08:31:13;;;;;;;8.13;6.90;;;23.00;56.10;;;;;;20980174;28;20535;-65
2023/06/18 08:41:15;;;;;;;8.63;7.20;;;23.30;54.60;;;;;;20914165;28;20323;-60
2023/06/18 08:51:17;;;;;;;7.30;6.50;;;23.60;53.50;;;;;;20915161;28;20211;-61
2023/06/18 09:01:19;;;;;;;11.83;6.27;;;23.90;52.30;;;;;;20915514;28;20314;-62
2023/06/18 09:11:21;;;;;;;9.10;6.20;;;24.20;51.30;;;;;;20991165;28;20204;-67
2023/06/18 09:21:38;;;;;;;9.43;6.23;;;24.50;50.30;;;;;;20995300;28;20255;-68
2023/06/18 09:31:44;;;;;;;7.60;6.43;;;24.80;49.50;;;;;;20973157;28;20208;-61
2023/06/18 09:41:49;;;;;;;10.00;6.23;;;25.00;48.60;;;;;;20911855;28;20249;-68
2023/06/18 09:51:51;;;;;;;7.60;5.90;;;25.30;47.40;;;;;;20911740;28;20208;-70
2023/06/18 10:01:55;;;;;;;7.43;6.00;;;25.50;45.90;;;;;;20911766;28;20599;-67
2023/06/18 10:11:58;;;;;;;6.53;5.60;;;25.70;43.90;;;;;;20993633;28;20257;-67
2023/06/18 10:22:05;;;;;;;11.10;7.17;;;25.90;43.00;;;;;;20992096;28;20784;-64
2023/06/18 10:32:07;;;;;;;9.73;5.50;;;26.20;42.30;;;;;;20968511;28;20625;-61
2023/06/18 10:42:14;;;;;;;7.90;6.30;;;26.40;41.60;;;;;;20925552;28;20278;-63
2023/06/18 10:52:22;;;;;;;8.90;6.10;;;26.60;41.10;;;;;;20925202;28;20239;-62
2023/06/18 11:02:32;;;;;;;6.40;5.73;;;26.90;41.10;;;;;;20927382;28;20270;-64
2023/06/18 11:12:38;;;;;;;7.77;5.70;;;27.00;40.80;;;;;;21005781;28;20258;-63
2023/06/18 11:22:41;;;;;;;10.27;6.00;;;27.20;40.30;;;;;;20939086;28;20331;-60
2023/06/18 11:32:44;;;;;;;9.57;5.57;;;27.30;39.40;;;;;;20907079;28;20212;-65
2023/06/18 11:42:51;;;;;;;10.63;5.55;;;27.50;38.30;;;;;;20921091;28;20575;-63
2023/06/18 11:52:53;;;;;;;9.40;5.53;;;27.70;37.60;;;;;;20889980;28;20598;-61
2023/06/18 12:02:54;;;;;;;12.60;5.28;;;28.00;37.10;;;;;;20851541;28;20325;-68
2023/06/18 12:13:13;;;;;;;7.18;5.93;;;28.30;36.70;;;;;;21001356;28;20218;-62
2023/06/18 12:23:14;;;;;;;5.90;5.30;;;28.70;36.60;;;;;;20999842;28;20357;-63
2023/06/18 12:33:18;;;;;;;8.02;5.80;;;29.00;35.80;;;;;;20963602;28;20204;-62
2023/06/18 12:43:19;;;;;;;5.88;5.32;;;29.20;35.60;;;;;;20914904;28;20721;-69
2023/06/18 12:53:27;;;;;;;5.90;5.10;;;29.20;35.30;;;;;;20915349;28;20219;-65
2023/06/18 13:03:30;;;;;;;5.70;4.88;;;29.30;35.10;;;;;;20925614;28;20245;-65
2023/06/18 13:13:32;;;;;;;6.13;5.53;;;29.30;34.90;;;;;;20995610;28;20242;-69
2023/06/18 13:23:34;;;;;;;7.22;5.70;;;29.30;35.00;;;;;;20996565;28;20246;-62
2023/06/18 13:33:36;;;;;;;7.03;6.10;;;29.40;35.10;;;;;;20962339;28;20243;-73
2023/06/18 13:43:38;;;;;;;9.27;5.80;;;29.40;34.70;;;;;;20918752;28;20238;-72
2023/06/18 13:53:40;;;;;;;5.75;5.18;;;29.60;34.50;;;;;;20912560;28;20667;-65
2023/06/18 14:03:42;;;;;;;7.70;5.28;;;29.80;34.00;;;;;;20925820;28;20712;-67
2023/06/18 14:13:44;;;;;;;7.63;5.43;;;29.90;34.00;;;;;;21006536;28;20210;-62
2023/06/18 14:23:46;;;;;;;9.68;5.43;;;30.10;33.60;;;;;;21009541;28;20239;-62
2023/06/18 14:33:47;;;;;;;10.48;5.45;;;31.70;32.40;;;;;;20969200;28;20295;-61
2023/06/18 14:44:04;;;;;;;9.13;6.55;;;31.80;31.90;;;;;;20925547;28;20241;-61
2023/06/18 14:54:12;;;;;;;8.30;4.88;;;32.80;30.80;;;;;;20924711;28;20223;-61
2023/06/18 15:04:14;;;;;;;6.57;4.53;;;32.40;31.00;;;;;;20941917;28;20227;-61
2023/06/18 15:14:16;;;;;;;6.32;4.80;;;33.40;30.40;;;;;;21006279;28;20299;-62
2023/06/18 15:24:18;;;;;;;7.15;4.63;;;34.20;29.70;;;;;;20890644;28;20663;-64
2023/06/18 15:34:20;;;;;;;7.57;4.82;;;34.60;29.40;;;;;;20883263;28;20290;-63
2023/06/18 15:44:22;;;;;;;6.47;4.68;;;33.90;29.70;;;;;;20904952;28;20235;-61
2023/06/18 15:54:24;;;;;;;5.75;5.22;;;34.50;29.20;;;;;;20857151;28;20212;-63
2023/06/18 16:04:26;;;;;;;10.55;4.72;;;37.10;27.70;;;;;;20876984;28;20318;-63
2023/06/18 16:14:28;;;;;;;5.00;4.50;;;38.60;26.60;;;;;;21001972;28;20218;-64
2023/06/18 16:24:30;;;;;;;7.18;4.20;;;39.30;26.10;;;;;;21002385;28;20706;-62
2023/06/18 16:34:32;;;;;;;16.50;4.97;;;43.10;24.20;;;;;;20955806;28;20693;-72
2023/06/18 16:44:36;;;;;;;6.55;4.60;;;38.50;25.80;;;;;;20917019;28;20235;-64
2023/06/18 16:54:38;;;;;;;5.32;4.82;;;36.50;26.60;;;;;;20915412;28;20222;-71
2023/06/18 17:04:40;;;;;;;5.60;5.10;;;34.50;27.40;;;;;;20936412;28;20227;-62
2023/06/18 17:14:42;;;;;;;5.40;4.75;;;33.50;27.90;;;;;;20996928;28;20207;-62
2023/06/18 17:24:45;;;;;;;5.70;5.20;;;36.60;26.00;;;;;;20995618;28;20247;-63
2023/06/18 17:34:47;;;;;;;5.05;4.57;;;35.10;26.90;;;;;;20947532;28;20655;-72
2023/06/18 17:44:48;;;;;;;6.82;5.55;;;35.70;26.40;;;;;;20912079;28;20299;-65
2023/06/18 17:54:50;;;;;;;7.70;5.80;;;32.90;28.20;;;;;;20912163;28;20677;-70
2023/06/18 18:04:52;;;;;;;7.88;5.70;;;31.40;30.10;;;;;;20935279;28;20698;-69
2023/06/18 18:14:54;;;;;;;9.65;6.28;;;30.50;33.60;;;;;;20994529;28;20666;-72
2023/06/18 18:24:58;;;;;;;7.55;6.20;;;29.80;35.00;;;;;;20993920;28;20641;-73
2023/06/18 18:34:59;;;;;;;10.65;6.85;;;29.20;35.80;;;;;;20942449;28;20663;-65
2023/06/18 18:45:02;;;;;;;7.18;5.85;;;28.50;37.10;;;;;;20910225;28;20323;-62
2023/06/18 18:55:06;;;;;;;9.90;3.37;;;28.00;38.20;;;;;;20912205;28;20208;-61
2023/06/18 19:05:08;;;;;;;7.20;5.87;;;27.60;40.50;;;;;;20949802;28;20223;-61
2023/06/18 19:15:10;;;;;;;12.77;6.33;;;27.20;41.00;;;;;;20894017;28;20247;-63
2023/06/18 19:25:12;;;;;;;7.93;6.40;;;26.90;41.60;;;;;;20839695;28;20790;-64
2023/06/18 19:35:14;;;;;;;11.20;6.43;;;26.50;42.60;;;;;;20890672;28;20656;-67
2023/06/18 19:45:16;;;;;;;8.67;6.90;;;26.30;43.20;;;;;;20920682;28;20323;-60
2023/06/18 19:55:19;;;;;;;11.17;7.10;;;26.20;44.30;;;;;;20887355;28;20208;-61
2023/06/18 20:05:22;;;;;;;11.40;6.90;;;26.00;44.70;;;;;;20904501;28;20239;-66
2023/06/18 20:15:24;;;;;;;9.67;6.63;;;25.70;45.90;;;;;;20999990;28;20302;-65
2023/06/18 20:25:26;;;;;;;9.03;6.90;;;25.40;47.50;;;;;;20997587;28;20324;-66
2023/06/18 20:35:28;;;;;;;9.50;6.50;;;25.20;48.00;;;;;;20944457;28;20200;-63
2023/06/18 20:45:29;;;;;;;9.67;6.40;;;25.10;47.50;;;;;;20914251;28;20275;-61
2023/06/18 20:55:31;;;;;;;9.20;6.40;;;24.90;47.60;;;;;;20913441;28;20222;-62
2023/06/18 21:05:33;;;;;;;8.00;6.20;;;24.70;48.20;;;;;;20941292;28;20322;-64
2023/06/18 21:15:35;;;;;;;11.33;6.70;;;24.60;49.00;;;;;;20994780;28;20214;-61
2023/06/18 21:25:36;;;;;;;8.20;6.50;;;24.50;49.20;;;;;;20992164;28;20281;-59
2023/06/18 21:35:38;;;;;;;9.47;6.40;;;24.30;49.10;;;;;;20938765;28;20196;-61
2023/06/18 21:45:40;;;;;;;9.13;6.33;;;24.30;50.00;;;;;;20911063;28;20721;-61
2023/06/18 21:55:44;;;;;;;11.27;6.87;;;24.20;50.50;;;;;;20912261;28;20727;-60
2023/06/18 22:05:46;;;;;;;9.23;6.53;;;24.10;51.00;;;;;;20943273;28;20234;-60
2023/06/18 22:15:47;;;;;;;9.27;6.67;;;24.10;51.50;;;;;;20994135;28;20735;-61
2023/06/18 22:25:49;;;;;;;7.70;6.83;;;24.00;52.00;;;;;;20993670;28;20593;-62
2023/06/18 22:35:51;;;;;;;10.67;6.60;;;23.80;52.40;;;;;;20949771;28;20663;-62
2023/06/18 22:45:53;;;;;;;8.27;6.87;;;23.90;53.10;;;;;;20925408;28;20246;-63
2023/06/18 22:55:56;;;;;;;8.57;6.67;;;23.80;53.60;;;;;;20923902;28;20609;-63
2023/06/18 23:05:58;;;;;;;8.37;6.77;;;23.70;54.10;;;;;;20930387;28;20272;-65
2023/06/18 23:15:59;;;;;;;8.23;6.80;;;23.60;54.40;;;;;;20860293;28;20240;-61
2023/06/18 23:26:02;;;;;;;10.93;7.30;;;23.40;54.00;;;;;;20840390;28;20594;-60
2023/06/18 23:36:04;;;;;;;8.73;7.23;;;23.50;54.60;;;;;;20897628;28;20207;-60
2023/06/18 23:46:06;;;;;;;11.63;8.07;;;23.40;54.60;;;;;;20919949;28;20235;-60
2023/06/18 23:56:07;;;;;;;10.80;7.33;;;23.40;54.60;;;;;;20914873;28;20211;-61
